Time;durP1;ratioP1;P1;durP2;ratioP2;P2;SDS_P1;SDS_P2;PMS_P1;PMS_P2;Temp;Humidity;BMP_temperature;BMP_pressure;BME280_temperature;BME280_humidity;BME280_pressure;Samples;Min_cycle;Max_cycle;Signal;HPM_P1;HPM_P2
2022/12/14 00:01:27;;;;;;;48.17;22.05;;;;;;;-6.84;78.57;97485.96;1674781;84;22188;-67
2022/12/14 00:03:55;;;;;;;47.25;20.92;;;;;;;-6.81;78.21;97488.61;1676668;84;21024;-69
2022/12/14 00:06:29;;;;;;;45.92;20.68;;;;;;;-6.81;78.03;97492.48;1676481;84;21025;-68
2022/12/14 00:08:58;;;;;;;;;;;;;;;-6.84;77.94;97480.80;1675922;84;21004;-68
2022/12/14 00:11:27;;;;;;;55.00;21.37;;;;;;;-6.84;78.25;97495.38;1680160;84;20151;-68
2022/12/14 00:13:58;;;;;;;45.55;18.40;;;;;;;-6.81;78.74;97492.91;1672965;84;21016;-68
2022/12/14 00:16:28;;;;;;;36.10;17.75;;;;;;;-6.84;78.51;97498.84;1682785;84;21009;-68
2022/12/14 00:18:58;;;;;;;38.83;16.05;;;;;;;-6.87;78.52;97496.56;1663916;84;21049;-68
2022/12/14 00:21:26;;;;;;;39.08;16.82;;;;;;;-6.96;78.11;97501.02;1679041;85;21398;-67
2022/12/14 00:23:53;;;;;;;34.13;16.27;;;;;;;-7.02;78.07;97500.00;1675192;84;21012;-68
2022/12/14 00:26:24;;;;;;;40.05;17.75;;;;;;;-7.02;78.30;97507.73;1678517;84;20993;-69
2022/12/14 00:28:55;;;;;;;37.23;16.50;;;;;;;-7.02;78.77;97500.00;1688106;84;20989;-69
2022/12/14 00:31:23;;;;;;;41.35;16.97;;;;;;;-7.01;78.32;97512.48;1682161;84;21001;-68
2022/12/14 00:33:54;;;;;;;36.98;17.05;;;;;;;-7.00;78.52;97503.92;1677011;84;21454;-68
2022/12/14 00:36:24;;;;;;;38.55;17.07;;;;;;;-7.04;78.31;97502.06;1681692;84;21049;-68
2022/12/14 00:38:51;;;;;;;38.30;17.40;;;;;;;-7.03;78.71;97499.55;1686418;84;21045;-68
2022/12/14 00:41:19;;;;;;;40.50;18.20;;;;;;;-6.94;78.86;97506.68;1679110;84;21008;-68
2022/12/14 00:43:45;;;;;;;39.55;18.00;;;;;;;-6.96;78.49;97494.58;1675968;84;21119;-69
2022/12/14 00:46:12;;;;;;;39.60;16.65;;;;;;;-6.99;78.62;97501.80;1676312;85;21467;-69
2022/12/14 00:48:40;;;;;;;48.15;19.92;;;;;;;-7.00;78.50;97506.89;1676835;84;21330;-68
2022/12/14 00:51:06;;;;;;;46.35;18.75;;;;;;;-6.97;78.91;97500.56;1673049;84;21142;-69
2022/12/14 00:53:33;;;;;;;41.98;17.90;;;;;;;-6.95;78.96;97495.92;1678986;85;21478;-69
2022/12/14 00:56:06;;;;;;;42.03;18.50;;;;;;;-6.93;78.84;97494.25;1679101;85;21036;-68
2022/12/14 00:58:33;;;;;;;41.33;17.98;;;;;;;-6.88;78.95;97496.99;1683349;84;21412;-68
2022/12/14 01:01:07;;;;;;;38.80;18.73;;;;;;;-6.92;78.79;97502.47;1682930;84;21055;-68
2022/12/14 01:03:33;;;;;;;;;;;;;;;-6.93;78.75;97502.41;1685917;85;21053;-67
2022/12/14 01:06:01;;;;;;;37.53;17.10;;;;;;;-6.92;78.61;97494.74;1673091;84;20340;-67
2022/12/14 01:08:34;;;;;;;43.95;18.42;;;;;;;-6.95;78.42;97499.78;1646143;87;21010;-68
2022/12/14 01:10:58;;;;;;;36.38;17.25;;;;;;;-6.99;78.28;97503.09;1621291;87;21061;-68
2022/12/14 01:13:26;;;;;;;46.05;18.52;;;;;;;-7.09;78.19;97504.91;1646192;87;21584;-67
2022/12/14 01:15:54;;;;;;;39.15;18.20;;;;;;;-7.10;78.32;97506.59;1646260;86;21484;-68
2022/12/14 01:18:23;;;;;;;37.93;17.85;;;;;;;-7.08;78.53;97506.66;1637810;87;21012;-69
2022/12/14 01:20:53;;;;;;;38.40;16.48;;;;;;;-7.12;78.36;97509.55;1619889;86;21099;-67
2022/12/14 01:23:19;;;;;;;37.50;18.02;;;;;;;-7.12;78.42;97511.23;1627174;88;21127;-68
2022/12/14 01:25:46;;;;;;;42.85;18.42;;;;;;;-7.11;78.56;97507.43;1611505;88;21014;-68
2022/12/14 01:28:12;;;;;;;45.75;18.42;;;;;;;-7.14;78.42;97507.35;1616580;88;21007;-68
2022/12/14 01:30:39;;;;;;;38.58;17.27;;;;;;;-7.13;78.52;97509.09;1626952;87;21401;-68
2022/12/14 01:33:06;;;;;;;39.08;16.12;;;;;;;-7.13;78.44;97507.80;1626457;87;21026;-67
2022/12/14 01:35:34;;;;;;;48.80;18.60;;;;;;;-7.20;78.33;97502.86;1626754;88;21018;-68
2022/12/14 01:38:01;;;;;;;42.67;18.42;;;;;;;-7.18;78.52;97501.63;1626972;88;21432;-68
2022/12/14 01:40:27;;;;;;;40.67;18.02;;;;;;;-7.18;78.51;97498.63;1626909;87;21082;-68
2022/12/14 01:42:54;;;;;;;40.20;16.93;;;;;;;-7.19;78.37;97494.31;1627020;88;21488;-68
2022/12/14 01:45:22;;;;;;;41.15;17.77;;;;;;;-7.21;78.24;97488.24;1624407;88;21091;-68
2022/12/14 01:47:55;;;;;;;36.98;17.07;;;;;;;-7.24;78.38;97491.11;1626753;88;21099;-69
2022/12/14 01:50:34;;;;;;;42.27;18.45;;;;;;;-7.27;78.08;97491.88;1611796;88;20983;-69
2022/12/14 01:53:08;;;;;;;38.90;17.40;;;;;;;-7.33;78.13;97489.12;1625520;88;21062;-67
2022/12/14 01:55:49;;;;;;;40.65;17.70;;;;;;;-7.31;78.38;97497.35;1626596;88;20987;-67
2022/12/14 01:58:20;;;;;;;38.95;17.98;;;;;;;-7.26;78.57;97492.77;1625738;88;21062;-67
2022/12/14 02:00:49;;;;;;;40.60;18.62;;;;;;;-7.22;78.64;97490.77;1627000;88;21014;-68
2022/12/14 02:03:23;;;;;;;36.15;16.42;;;;;;;-7.14;78.64;97490.61;1646279;87;21123;-68
2022/12/14 02:05:57;;;;;;;44.18;17.70;;;;;;;-7.12;78.36;97490.23;1625922;87;21067;-67
2022/12/14 02:08:26;;;;;;;38.28;17.73;;;;;;;-7.17;77.92;97486.64;1661201;85;21014;-67
2022/12/14 02:10:54;;;;;;;40.75;17.40;;;;;;;-7.22;78.19;97486.50;1661526;86;21042;-67
2022/12/14 02:13:38;;;;;;;39.38;18.27;;;;;;;-7.18;78.18;97476.73;1659582;86;21010;-67
2022/12/14 02:16:06;;;;;;;38.38;17.20;;;;;;;-7.23;77.99;97475.72;1660497;85;21011;-68
2022/12/14 02:18:36;;;;;;;40.33;17.57;;;;;;;-7.24;78.24;97470.51;1639237;86;21022;-68
2022/12/14 02:21:17;;;;;;;39.95;17.82;;;;;;;-7.33;78.17;97469.41;1644188;85;21086;-68
2022/12/14 02:24:15;;;;;;;38.75;18.23;;;;;;;-7.28;78.60;97470.83;1661620;85;20987;-67
2022/12/14 02:26:56;;;;;;;42.20;18.07;;;;;;;-7.22;78.52;97471.05;1650929;86;21034;-69
2022/12/14 02:29:40;;;;;;;40.80;17.40;;;;;;;-7.21;78.25;97472.80;1661819;86;21420;-69
2022/12/14 02:32:34;;;;;;;33.75;15.68;;;;;;;-7.24;78.09;97464.07;1659397;86;21049;-68
2022/12/14 02:35:09;;;;;;;37.20;16.65;;;;;;;-7.22;78.29;97463.33;1637703;86;21080;-67
2022/12/14 02:38:32;;;;;;;41.98;17.23;;;;;;;-7.22;78.31;97459.46;1672813;86;21049;-69
2022/12/14 02:41:16;;;;;;;34.88;15.25;;;;;;;-7.19;78.48;97460.83;1672563;85;21518;-68
2022/12/14 02:44:03;;;;;;;43.65;18.62;;;;;;;-7.13;78.36;97469.58;1673377;86;21037;-68
2022/12/14 02:46:44;;;;;;;37.90;16.45;;;;;;;-7.13;78.50;97457.58;1669058;84;21017;-67
2022/12/14 02:49:24;;;;;;;44.10;17.70;;;;;;;-7.13;78.32;97469.17;1659916;85;21097;-68
2022/12/14 02:52:06;;;;;;;41.05;17.30;;;;;;;-7.16;78.44;97466.09;1671925;85;21519;-68
2022/12/14 02:54:53;;;;;;;38.30;17.65;;;;;;;-7.16;78.45;97460.94;1672245;86;21009;-68
2022/12/14 02:57:49;;;;;;;45.48;16.70;;;;;;;-7.14;78.44;97462.68;1673313;86;20986;-68
2022/12/14 03:00:16;;;;;;;37.10;16.67;;;;;;;-7.11;78.49;97466.22;1673579;86;20990;-67
2022/12/14 03:02:44;;;;;;;36.85;16.77;;;;;;;-7.11;78.18;97461.50;1642309;85;22220;-68
2022/12/14 03:05:11;;;;;;;38.45;17.02;;;;;;;-7.12;78.21;97460.61;1664889;85;21491;-68
2022/12/14 03:07:51;;;;;;;37.93;16.67;;;;;;;-7.12;78.34;97456.75;1692668;82;21561;-68
2022/12/14 03:10:33;;;;;;;40.15;15.98;;;;;;;-7.08;78.51;97457.71;1710211;83;21024;-68
2022/12/14 03:13:17;;;;;;;35.95;16.07;;;;;;;-7.05;78.37;97461.25;1710148;82;21375;-68
2022/12/14 03:15:49;;;;;;;41.42;15.80;;;;;;;-7.04;78.09;97463.03;1709227;83;21021;-68
2022/12/14 03:18:19;;;;;;;33.28;14.87;;;;;;;-7.15;77.75;97456.64;1688806;83;20987;-67
2022/12/14 03:20:49;;;;;;;38.63;16.42;;;;;;;-7.23;78.21;97451.25;1680367;83;20989;-67
2022/12/14 03:23:23;;;;;;;36.70;15.83;;;;;;;-7.27;78.31;97450.69;1710123;83;21474;-68
2022/12/14 03:26:07;;;;;;;35.25;16.70;;;;;;;-7.25;78.61;97453.31;1709932;82;21016;-68
2022/12/14 03:28:48;;;;;;;36.15;16.10;;;;;;;-7.24;78.07;97452.09;1710076;82;21110;-69
2022/12/14 03:31:22;;;;;;;37.73;16.67;;;;;;;-7.28;78.45;97455.37;1710116;82;21009;-68
2022/12/14 03:33:53;;;;;;;36.93;14.63;;;;;;;-7.30;78.08;97454.47;1710008;82;20961;-67
2022/12/14 03:36:28;;;;;;;39.05;16.77;;;;;;;-7.35;78.30;97455.59;1710070;82;20966;-67
2022/12/14 03:38:59;;;;;;;42.20;16.48;;;;;;;-7.33;78.27;97456.94;1707502;82;20985;-67
2022/12/14 03:41:51;;;;;;;45.28;18.48;;;;;;;-7.32;78.46;97454.81;1700530;82;21463;-69
2022/12/14 03:44:44;;;;;;;43.78;18.55;;;;;;;-7.32;78.39;97458.28;1710315;82;20996;-67
2022/12/14 03:47:45;;;;;;;45.52;17.45;;;;;;;-7.34;78.60;97457.37;1691100;84;21001;-68
2022/12/14 03:50:26;;;;;;;42.80;18.35;;;;;;;-7.34;78.64;97457.77;1710011;82;20966;-68
2022/12/14 03:53:22;;;;;;;39.35;17.25;;;;;;;-7.33;78.33;97450.50;1709197;82;21520;-69
2022/12/14 03:56:19;;;;;;;36.80;17.23;;;;;;;-7.36;78.42;97452.56;1710223;84;21040;-67
2022/12/14 03:59:07;;;;;;;38.23;16.57;;;;;;;-7.33;78.52;97453.07;1710213;83;21025;-67
2022/12/14 04:01:48;;;;;;;37.00;16.32;;;;;;;-7.33;78.23;97444.95;1709613;82;21017;-67
2022/12/14 04:04:29;;;;;;;37.15;16.17;;;;;;;-7.38;77.88;97453.34;1677655;82;20973;-68
2022/12/14 04:07:25;;;;;;;37.05;15.72;;;;;;;-7.47;77.83;97447.05;1707369;82;20978;-67
2022/12/14 04:18:55;;;;;;;38.88;15.68;;;;;;;-7.49;77.95;97443.97;1664660;84;21021;-68
2022/12/14 04:21:17;;;;;;;39.13;16.17;;;;;;;-7.46;78.59;97440.22;1677581;84;21454;-67
2022/12/14 04:26:38;;;;;;;39.70;17.23;;;;;;;-7.50;78.34;97437.97;1644573;85;21064;-67
2022/12/14 04:32:12;;;;;;;39.25;16.15;;;;;;;-7.50;78.44;97432.81;1660288;84;21037;-68
2022/12/14 04:34:44;;;;;;;39.98;17.02;;;;;;;-7.48;78.45;97427.30;1682635;85;21060;-68
2022/12/14 04:37:16;;;;;;;39.45;15.98;;;;;;;-7.46;78.53;97423.48;1683165;85;21048;-68
2022/12/14 04:39:48;;;;;;;37.30;15.38;;;;;;;-7.42;78.72;97421.48;1680103;85;21079;-68
2022/12/14 04:42:21;;;;;;;35.57;14.70;;;;;;;-7.39;78.71;97421.98;1683482;85;20993;-68
2022/12/14 04:44:56;;;;;;;34.55;15.95;;;;;;;-7.38;78.55;97428.48;1683340;84;21008;-67
2022/12/14 04:47:28;;;;;;;30.72;14.38;;;;;;;-7.43;78.32;97421.02;1683181;85;21072;-67
2022/12/14 04:50:23;;;;;;;34.88;14.50;;;;;;;-7.47;78.24;97421.75;1682737;84;20993;-66
2022/12/14 04:53:04;;;;;;;37.73;15.08;;;;;;;-7.55;78.41;97412.06;1683549;85;21053;-67
2022/12/14 04:55:36;;;;;;;39.58;15.40;;;;;;;-7.50;78.84;97407.48;1683359;84;21017;-67
2022/12/14 04:58:22;;;;;;;31.12;14.95;;;;;;;-7.50;78.26;97408.77;1683230;84;21005;-67
2022/12/14 05:01:21;;;;;;;36.55;15.30;;;;;;;-7.59;78.63;97414.50;1666596;85;21044;-68
2022/12/14 05:04:34;;;;;;;36.30;16.80;;;;;;;-7.62;78.80;97410.13;1666974;85;21044;-67
2022/12/14 05:07:17;;;;;;;35.85;14.38;;;;;;;-7.57;78.99;97416.70;1683121;83;20978;-68
2022/12/14 05:10:05;;;;;;;38.15;14.93;;;;;;;-7.50;79.01;97407.08;1665484;85;21005;-67
2022/12/14 05:12:49;;;;;;;36.13;15.20;;;;;;;-7.47;78.88;97408.44;1682013;85;21473;-68
2022/12/14 05:15:23;;;;;;;42.90;17.15;;;;;;;-7.47;78.76;97412.73;1683594;84;21040;-67
2022/12/14 05:17:52;;;;;;;42.93;17.52;;;;;;;-7.51;78.54;97414.74;1682531;84;21081;-68
2022/12/14 05:20:22;;;;;;;35.63;15.83;;;;;;;-7.59;78.50;97413.21;1677083;84;21430;-69
2022/12/14 05:22:50;;;;;;;39.08;15.30;;;;;;;-7.57;79.08;97414.12;1665178;85;21044;-67
2022/12/14 05:25:17;;;;;;;40.40;15.83;;;;;;;-7.57;78.93;97412.44;1682660;84;21040;-68
2022/12/14 05:27:45;;;;;;;34.18;14.65;;;;;;;-7.56;78.82;97418.47;1683116;85;21064;-68
2022/12/14 05:30:13;;;;;;;33.63;15.28;;;;;;;-7.59;78.88;97423.11;1683260;84;21029;-67
2022/12/14 05:32:40;;;;;;;36.25;16.42;;;;;;;-7.56;78.91;97423.62;1683229;85;21013;-68
2022/12/14 05:35:11;;;;;;;35.98;14.35;;;;;;;-7.56;78.92;97430.91;1677516;84;21084;-68
2022/12/14 05:37:37;;;;;;;39.35;15.25;;;;;;;-7.51;79.07;97432.36;1683427;85;21470;-68
2022/12/14 05:40:06;;;;;;;36.63;14.87;;;;;;;-7.54;78.66;97429.67;1683148;84;20992;-67
2022/12/14 05:42:32;;;;;;;34.03;14.63;;;;;;;-7.56;78.74;97430.05;1677961;84;21036;-68
2022/12/14 05:44:58;;;;;;;38.58;15.78;;;;;;;-7.58;78.89;97427.42;1657842;84;21033;-68
2022/12/14 05:47:27;;;;;;;37.28;14.18;;;;;;;-7.57;79.06;97433.42;1682397;84;21013;-67
2022/12/14 05:49:55;;;;;;;36.75;14.78;;;;;;;-7.62;78.56;97434.97;1683223;84;21430;-68
2022/12/14 05:52:25;;;;;;;37.73;14.95;;;;;;;-7.64;78.73;97430.20;1683234;85;21013;-68
2022/12/14 05:54:52;;;;;;;39.85;17.45;;;;;;;-7.63;79.10;97427.69;1680188;84;20981;-68
2022/12/14 05:57:21;;;;;;;36.15;16.40;;;;;;;-7.65;79.02;97430.60;1671395;85;21031;-68
2022/12/14 05:59:48;;;;;;;34.78;15.18;;;;;;;-7.57;79.40;97433.02;1665226;84;21031;-68
2022/12/14 06:02:15;;;;;;;31.25;15.90;;;;;;;-7.51;79.04;97430.19;1683123;84;21028;-68
2022/12/14 06:04:42;;;;;;;34.80;16.32;;;;;;;-7.45;79.27;97431.66;1683729;85;21056;-68
2022/12/14 06:07:10;;;;;;;38.38;17.12;;;;;;;-7.34;79.42;97431.63;1684778;85;21600;-69
2022/12/14 06:09:38;;;;;;;47.20;18.70;;;;;;;-7.23;79.54;97425.50;1643588;85;21017;-68
2022/12/14 06:12:05;;;;;;;38.30;17.50;;;;;;;-7.20;79.28;97428.58;1640116;87;21030;-69
2022/12/14 06:14:34;;;;;;;33.40;15.72;;;;;;;-7.17;79.23;97428.29;1597965;88;20974;-68
2022/12/14 06:17:00;;;;;;;37.75;17.20;;;;;;;-7.13;78.88;97429.66;1637681;87;21408;-68
2022/12/14 06:19:27;;;;;;;33.23;15.50;;;;;;;-7.07;79.36;97432.41;1614689;87;21049;-69
2022/12/14 06:21:54;;;;;;;39.70;16.10;;;;;;;-6.99;79.22;97437.83;1636306;87;21030;-68
2022/12/14 06:24:22;;;;;;;35.45;16.65;;;;;;;-6.93;79.43;97431.14;1641024;87;21025;-68
2022/12/14 06:26:48;;;;;;;45.88;18.35;;;;;;;-6.80;79.44;97419.52;1621831;87;21097;-69
2022/12/14 06:29:18;;;;;;;40.90;16.97;;;;;;;-6.69;79.49;97411.23;1640926;86;21041;-70
2022/12/14 06:31:46;;;;;;;36.05;17.12;;;;;;;-6.63;79.24;97424.28;1641461;86;21048;-70
2022/12/14 06:34:13;;;;;;;34.92;18.00;;;;;;;-6.55;79.32;97425.39;1624701;86;21127;-69
2022/12/14 06:36:41;;;;;;;44.30;18.35;;;;;;;-6.46;79.44;97432.51;1641191;86;21463;-69
2022/12/14 06:39:12;;;;;;;47.50;18.52;;;;;;;-6.33;79.99;97419.54;1641342;86;21088;-68
2022/12/14 06:41:40;;;;;;;48.30;18.82;;;;;;;-6.20;79.90;97410.44;1638158;86;21052;-68
2022/12/14 06:44:13;;;;;;;45.95;18.00;;;;;;;-6.05;79.96;97424.17;1641381;86;20992;-68
2022/12/14 06:46:41;;;;;;;46.35;17.80;;;;;;;-5.90;80.08;97422.80;1641313;86;21053;-71
2022/12/14 06:49:14;;;;;;;44.75;17.67;;;;;;;-5.75;80.45;97416.75;1641172;87;21513;-67
2022/12/14 06:51:41;;;;;;;44.50;17.37;;;;;;;-5.60;80.06;97414.09;1641264;86;21426;-67
2022/12/14 06:54:11;;;;;;;38.08;17.73;;;;;;;-5.48;80.04;97405.34;1641349;86;21017;-68
2022/12/14 06:56:39;;;;;;;42.55;16.77;;;;;;;-5.38;79.96;97407.75;1641240;87;21454;-68
2022/12/14 06:59:07;;;;;;;39.85;17.15;;;;;;;-5.27;79.92;97410.59;1612290;88;20952;-68
2022/12/14 07:01:35;;;;;;;46.73;18.32;;;;;;;-5.25;79.51;97417.95;1632622;86;21072;-70
2022/12/14 07:04:02;;;;;;;40.90;16.65;;;;;;;-5.20;79.64;97417.64;1626093;86;21000;-68
2022/12/14 07:06:33;;;;;;;41.85;17.20;;;;;;;-5.12;79.64;97411.80;1640558;87;21478;-69
2022/12/14 07:09:04;;;;;;;42.13;16.55;;;;;;;-5.04;79.66;97403.38;1664591;85;21001;-68
2022/12/14 07:11:32;;;;;;;40.65;16.75;;;;;;;-4.92;79.67;97403.19;1668657;85;21427;-68
2022/12/14 07:14:05;;;;;;;44.90;17.95;;;;;;;-4.81;79.67;97405.58;1683318;84;21032;-68
2022/12/14 07:16:34;;;;;;;38.15;17.00;;;;;;;-4.69;79.43;97400.23;1680999;84;20998;-69
2022/12/14 07:19:01;;;;;;;38.83;16.65;;;;;;;-4.60;79.37;97398.26;1703152;83;21008;-67
2022/12/14 07:21:28;;;;;;;40.30;17.02;;;;;;;-4.47;79.24;97404.14;1708435;82;21562;-69
2022/12/14 07:23:55;;;;;;;34.65;16.02;;;;;;;-4.40;78.78;97395.65;1717898;82;21051;-68
2022/12/14 07:26:27;;;;;;;37.83;16.77;;;;;;;-4.36;78.61;97397.91;1723456;82;22084;-69
2022/12/14 07:28:59;;;;;;;47.08;18.48;;;;;;;-4.37;78.24;97396.13;1723128;82;21109;-68
2022/12/14 07:31:28;;;;;;;40.60;16.52;;;;;;;-4.37;78.43;97398.72;1723216;83;20993;-68
2022/12/14 07:33:58;;;;;;;35.60;16.48;;;;;;;-4.31;78.27;97406.62;1717918;82;21035;-68
2022/12/14 07:36:27;;;;;;;33.67;16.25;;;;;;;-4.24;77.95;97410.18;1726071;82;20988;-68
2022/12/14 07:38:55;;;;;;;38.25;15.72;;;;;;;-4.23;78.16;97402.89;1715218;82;21056;-68
2022/12/14 07:41:42;;;;;;;38.58;16.77;;;;;;;-4.14;77.68;97409.95;1716631;82;21474;-68
2022/12/14 07:44:09;;;;;;;30.95;15.18;;;;;;;-4.13;77.69;97407.41;1721107;82;21025;-68
2022/12/14 07:46:36;;;;;;;33.60;15.60;;;;;;;-4.13;77.84;97406.52;1719771;82;21496;-68
2022/12/14 07:49:06;;;;;;;33.30;15.68;;;;;;;-4.05;77.88;97400.19;1724126;82;21140;-68
2022/12/14 07:51:47;;;;;;;33.20;15.15;;;;;;;-4.00;77.77;97405.03;1696473;83;21013;-75
2022/12/14 07:54:20;;;;;;;28.80;14.38;;;;;;;-3.95;77.52;97409.87;1726463;82;21468;-75
2022/12/14 07:56:46;;;;;;;41.05;14.98;;;;;;;-3.93;77.06;97406.91;1716943;82;21407;-75
2022/12/14 07:59:15;;;;;;;33.33;15.60;;;;;;;-3.88;77.22;97401.39;1710371;82;21023;-75
2022/12/14 08:01:44;;;;;;;36.15;16.27;;;;;;;-3.81;77.19;97397.61;1706482;82;20999;-75
2022/12/14 08:04:18;;;;;;;31.35;15.10;;;;;;;-3.76;77.22;97403.33;1717425;82;21052;-75
2022/12/14 08:06:47;;;;;;;32.38;15.90;;;;;;;-3.72;76.18;97399.06;1717484;82;21450;-75
2022/12/14 08:09:15;;;;;;;34.18;14.47;;;;;;;-3.62;76.62;97388.42;1692262;82;21009;-74
2022/12/14 08:11:45;;;;;;;33.10;13.75;;;;;;;-3.49;76.42;97393.41;1615023;87;21080;-75
2022/12/14 08:14:18;;;;;;;30.50;14.55;;;;;;;-3.45;75.49;97390.88;1682605;84;21036;-74
2022/12/14 08:16:47;;;;;;;28.17;14.90;;;;;;;-3.36;75.96;97392.74;1683438;84;20973;-75
2022/12/14 08:19:15;;;;;;;33.13;14.30;;;;;;;-3.29;76.12;97391.57;1676239;85;21016;-75
2022/12/14 08:21:42;;;;;;;28.42;14.18;;;;;;;-3.23;75.86;97389.06;1670868;85;21454;-75
2022/12/14 08:24:14;;;;;;;28.50;13.75;;;;;;;-3.16;76.02;97383.55;1683212;85;21025;-75
2022/12/14 08:26:41;;;;;;;27.48;13.00;;;;;;;-3.16;75.53;97376.63;1677578;85;20984;-75
2022/12/14 08:29:11;;;;;;;34.58;14.75;;;;;;;-3.12;75.10;97360.28;1666388;84;21332;-75
2022/12/14 08:31:37;;;;;;;34.20;14.55;;;;;;;-3.03;75.79;97362.16;1678461;85;21009;-75
2022/12/14 08:34:25;;;;;;;;;;;;;;;;;;;;;
2022/12/14 08:36:40;;;;;;;31.12;14.47;;;;;;;-2.91;72.79;97356.23;1655685;84;21053;-75
2022/12/14 08:39:09;;;;;;;26.82;13.55;;;;;;;-2.82;73.98;97351.63;1682318;84;20985;-75
2022/12/14 08:41:36;;;;;;;27.82;13.88;;;;;;;-2.75;74.20;97353.43;1646260;84;21004;-75
2022/12/14 08:44:03;;;;;;;26.07;14.55;;;;;;;-2.65;73.83;97368.70;1683430;85;21045;-75
2022/12/14 08:46:32;;;;;;;29.60;13.85;;;;;;;-2.64;72.90;97350.98;1683005;84;21032;-75
2022/12/14 08:49:00;;;;;;;34.27;16.02;;;;;;;-2.58;73.65;97345.02;1682634;85;21052;-75
2022/12/14 08:51:28;;;;;;;27.30;13.68;;;;;;;-2.50;73.06;97329.08;1682692;84;21063;-75
2022/12/14 08:53:55;;;;;;;28.25;13.72;;;;;;;-2.41;73.98;97334.83;1668777;85;21009;-75
2022/12/14 08:56:26;;;;;;;29.67;16.02;;;;;;;-2.30;73.69;97317.64;1663679;84;21012;-75
2022/12/14 08:58:54;;;;;;;29.60;15.65;;;;;;;-2.21;73.32;97323.80;1671586;85;21060;-75
2022/12/14 09:01:24;;;;;;;27.42;14.30;;;;;;;-2.15;73.49;97319.95;1663450;85;21009;-75
2022/12/14 09:03:51;;;;;;;28.73;14.65;;;;;;;-2.02;72.88;97309.25;1615108;87;21471;-75
2022/12/14 09:06:22;;;;;;;22.58;11.65;;;;;;;-2.02;70.50;97299.75;1665534;84;21076;-75
2022/12/14 09:08:51;;;;;;;25.32;12.75;;;;;;;-2.01;71.59;97298.89;1667339;85;21169;-75
2022/12/14 09:11:20;;;;;;;24.25;12.88;;;;;;;-1.92;71.12;97297.20;1647493;86;21080;-75
2022/12/14 09:13:50;;;;;;;35.00;15.30;;;;;;;-1.92;69.66;97290.30;1648500;86;21052;-75
2022/12/14 09:16:19;;;;;;;25.85;13.45;;;;;;;-1.86;70.76;97277.80;1652116;85;21037;-74
2022/12/14 09:18:49;;;;;;;24.57;12.73;;;;;;;-1.73;70.94;97272.27;1648381;86;21061;-75
2022/12/14 09:21:17;;;;;;;28.23;12.10;;;;;;;-1.64;69.37;97273.64;1664176;86;20992;-75
2022/12/14 09:23:44;;;;;;;22.82;11.15;;;;;;;-1.56;69.34;97268.50;1647042;86;21116;-75
2022/12/14 09:26:18;;;;;;;22.90;11.50;;;;;;;-1.44;67.79;97268.13;1648393;86;21033;-75
2022/12/14 09:28:49;;;;;;;23.83;13.07;;;;;;;-1.35;68.77;97265.17;1665848;84;21021;-75
2022/12/14 09:31:22;;;;;;;21.12;10.63;;;;;;;-1.25;68.84;97255.69;1666779;86;20996;-75
2022/12/14 09:33:50;;;;;;;24.15;11.00;;;;;;;-1.09;68.65;97246.24;1648427;87;21084;-76
2022/12/14 09:36:20;;;;;;;20.05;10.65;;;;;;;-1.09;65.21;97244.05;1675514;84;21021;-75
2022/12/14 09:38:50;;;;;;;19.95;10.85;;;;;;;-1.02;65.41;97239.76;1648083;85;21058;-75
2022/12/14 09:41:59;;;;;;;18.50;9.93;;;;;;;-0.95;65.95;97242.84;1706394;83;21414;-75
2022/12/14 09:44:52;;;;;;;21.17;10.30;;;;;;;-0.87;65.89;97222.05;1716023;82;21028;-75
2022/12/14 09:47:40;;;;;;;21.87;11.30;;;;;;;-0.70;66.09;97231.22;1713092;83;20989;-75
2022/12/14 09:50:15;;;;;;;22.52;10.60;;;;;;;-0.75;63.11;97232.94;1711950;82;20997;-75
2022/12/14 09:52:54;;;;;;;25.17;11.05;;;;;;;-0.77;63.72;97230.74;1712608;82;21130;-75
2022/12/14 09:55:40;;;;;;;17.85;10.32;;;;;;;-0.78;62.75;97229.89;1690318;82;20992;-75
2022/12/14 09:58:20;;;;;;;22.00;11.85;;;;;;;-0.71;63.37;97229.48;1700292;82;20973;-74
2022/12/14 10:00:58;;;;;;;22.45;11.85;;;;;;;-0.59;64.51;97221.69;1710217;84;21020;-76
2022/12/14 10:03:43;;;;;;;19.95;11.50;;;;;;;-0.48;61.93;97215.64;1700410;82;21438;-75
2022/12/14 10:06:40;;;;;;;26.62;12.28;;;;;;;-0.42;62.19;97216.52;1709972;82;21037;-74
2022/12/14 10:09:34;;;;;;;21.12;11.57;;;;;;;-0.31;62.16;97213.06;1704298;82;21119;-74
2022/12/14 10:12:15;;;;;;;20.82;12.05;;;;;;;-0.14;63.59;97210.05;1677453;85;21428;-74
2022/12/14 10:15:20;;;;;;;23.05;11.68;;;;;;;0.01;63.37;97212.64;1665306;85;21052;-74
2022/12/14 10:18:21;;;;;;;;;;;;;;;0.15;63.20;97200.91;1685234;84;21013;-74
2022/12/14 10:21:05;;;;;;;28.07;11.65;;;;;;;0.30;63.39;97191.80;1665694;84;20130;-75
2022/12/14 10:23:34;;;;;;;23.40;11.05;;;;;;;0.30;63.49;97190.91;1683124;84;21017;-75
2022/12/14 10:26:10;;;;;;;20.52;11.88;;;;;;;0.33;62.20;97179.19;1676718;85;21037;-74
2022/12/14 10:28:54;;;;;;;24.77;11.60;;;;;;;0.34;60.59;97172.64;1676706;85;21482;-74
2022/12/14 10:31:50;;;;;;;25.17;12.43;;;;;;;0.38;61.65;97170.47;1677268;85;20974;-76
2022/12/14 10:34:24;;;;;;;26.55;13.08;;;;;;;0.50;61.81;97170.88;1676421;85;21092;-76
2022/12/14 10:37:02;;;;;;;23.80;12.90;;;;;;;0.59;59.84;97172.61;1675108;85;21038;-75
2022/12/14 10:39:46;;;;;;;25.50;12.95;;;;;;;0.71;60.64;97158.63;1663009;84;21028;-75
2022/12/14 10:42:22;;;;;;;31.85;14.70;;;;;;;0.82;60.05;97155.14;1680121;84;21057;-74
2022/12/14 10:45:38;;;;;;;24.43;14.40;;;;;;;1.14;60.72;97147.58;1674515;84;21310;-75
2022/12/14 10:48:27;;;;;;;26.42;13.30;;;;;;;1.66;58.00;97133.30;1597543;89;21162;-75
2022/12/14 10:51:09;;;;;;;27.80;11.80;;;;;;;2.42;59.08;97121.28;1593729;89;21100;-75
2022/12/14 10:53:50;;;;;;;20.00;11.93;;;;;;;2.79;57.35;97130.45;1646839;84;21220;-75
2022/12/14 10:56:22;;;;;;;27.95;12.05;;;;;;;2.63;55.51;97125.84;1674807;84;21076;-75
2022/12/14 10:59:20;;;;;;;35.03;13.78;;;;;;;2.39;55.44;97121.30;1672574;85;21045;-75
2022/12/14 11:02:06;;;;;;;22.62;12.25;;;;;;;2.15;55.56;97119.83;1676579;85;21049;-76
2022/12/14 11:04:53;;;;;;;29.00;12.10;;;;;;;1.90;56.47;97118.72;1673027;85;21013;-75
2022/12/14 11:07:38;;;;;;;20.23;10.65;;;;;;;1.73;56.57;97116.30;1683038;84;21009;-75
2022/12/14 11:10:19;;;;;;;26.05;12.23;;;;;;;1.58;55.99;97105.94;1680340;83;21092;-75
2022/12/14 11:13:18;;;;;;;18.95;9.75;;;;;;;1.49;56.41;97104.70;1681888;84;21013;-75
2022/12/14 11:15:56;;;;;;;19.00;10.23;;;;;;;1.34;55.55;97086.55;1653217;86;21080;-75
2022/12/14 11:18:29;;;;;;;18.77;10.58;;;;;;;1.23;55.77;97086.61;1680316;84;21407;-76
2022/12/14 11:21:02;;;;;;;21.05;10.95;;;;;;;1.07;56.00;97092.40;1664501;85;21068;-76
2022/12/14 11:23:39;;;;;;;18.77;10.35;;;;;;;0.93;55.84;97097.25;1683125;85;20981;-75
2022/12/14 11:26:12;;;;;;;23.35;11.90;;;;;;;0.88;56.83;97100.33;1666321;85;21057;-75
2022/12/14 11:28:57;;;;;;;24.30;11.53;;;;;;;0.81;57.02;97090.78;1677029;84;21045;-74
2022/12/14 11:31:45;;;;;;;21.65;11.90;;;;;;;0.83;57.92;97087.75;1675070;85;21046;-74
2022/12/14 11:34:32;;;;;;;23.80;12.23;;;;;;;0.83;58.17;97087.75;1674227;85;21474;-74
2022/12/14 11:37:28;;;;;;;22.55;11.33;;;;;;;0.85;58.80;97081.64;1674795;85;21009;-74
2022/12/14 11:40:02;;;;;;;18.73;9.93;;;;;;;0.89;59.04;97066.41;1673709;84;21002;-74
2022/12/14 11:42:32;;;;;;;20.92;11.20;;;;;;;0.87;59.13;97056.40;1673074;85;21064;-75
2022/12/14 11:45:27;;;;;;;20.12;10.32;;;;;;;0.96;59.43;97062.45;1673759;85;21127;-74
2022/12/14 11:48:17;;;;;;;;;;;;;;;1.15;57.56;97058.84;1682596;85;20989;-73
2022/12/14 11:50:47;;;;;;;20.50;11.48;;;;;;;1.53;56.64;97053.34;1673204;85;20168;-75
2022/12/14 11:53:17;;;;;;;23.22;11.28;;;;;;;1.55;56.45;97050.26;1676281;84;20994;-75
2022/12/14 11:55:54;;;;;;;20.45;10.53;;;;;;;1.69;56.46;97057.53;1680614;84;21025;-75
2022/12/14 11:58:35;;;;;;;21.57;10.80;;;;;;;2.10;56.66;97044.94;1667775;85;20992;-75
2022/12/14 12:01:15;;;;;;;18.25;10.48;;;;;;;2.52;54.38;97037.48;1683201;84;21039;-75
2022/12/14 12:03:49;;;;;;;18.30;10.65;;;;;;;3.08;55.59;97038.02;1682150;84;21410;-75
2022/12/14 12:06:23;;;;;;;18.27;11.13;;;;;;;3.32;51.20;97029.36;1674724;84;21155;-75
2022/12/14 12:09:00;;;;;;;16.82;9.98;;;;;;;3.62;51.79;97013.58;1679193;84;21032;-76
2022/12/14 12:11:31;;;;;;;19.25;11.10;;;;;;;3.81;50.32;97010.59;1695443;82;21418;-75